Time;durP1;ratioP1;P1;durP2;ratioP2;P2;SDS_P1;SDS_P2;PMS_P1;PMS_P2;Temp;Humidity;BMP_temperature;BMP_pressure;BME280_temperature;BME280_humidity;BME280_pressure;Samples;Min_cycle;Max_cycle;Signal;HPM_P1;HPM_P2
2023/01/18 00:01:53;;;;;;;7.63;3.63;;;0.20;88.80;;;;;;5053932;28;20037;-79
2023/01/18 00:04:19;;;;;;;6.95;4.90;;;0.30;89.00;;;;;;5070545;28;20124;-78
2023/01/18 00:06:45;;;;;;;7.03;4.35;;;0.30;89.00;;;;;;5053743;28;20053;-78
2023/01/18 00:09:11;;;;;;;8.55;5.18;;;0.30;89.00;;;;;;5070539;28;20041;-77
2023/01/18 00:11:37;;;;;;;5.68;3.28;;;0.20;89.00;;;;;;5020770;28;20041;-79
2023/01/18 00:14:03;;;;;;;8.95;3.17;;;0.30;89.10;;;;;;5053727;28;20067;-78
2023/01/18 00:16:31;;;;;;;7.28;2.75;;;0.30;89.00;;;;;;5053629;28;20340;-78
2023/01/18 00:18:57;;;;;;;4.43;2.13;;;0.30;89.00;;;;;;5070454;28;20045;-79
2023/01/18 00:21:25;;;;;;;5.65;1.90;;;0.30;89.10;;;;;;5037087;28;20044;-80
2023/01/18 00:23:52;;;;;;;2.78;1.85;;;0.20;89.00;;;;;;5053797;28;20044;-79
2023/01/18 00:26:18;;;;;;;5.20;1.95;;;0.20;89.20;;;;;;5053366;28;20041;-79
2023/01/18 00:28:44;;;;;;;5.70;2.25;;;0.20;89.30;;;;;;5070142;28;20037;-78
2023/01/18 00:31:15;;;;;;;12.73;6.07;;;0.20;89.30;;;;;;5053347;28;20057;-79
2023/01/18 00:33:42;;;;;;;5.35;2.20;;;0.20;89.00;;;;;;5069581;28;20041;-78
2023/01/18 00:36:09;;;;;;;4.07;2.13;;;0.20;89.00;;;;;;5036655;28;20044;-78
2023/01/18 00:38:34;;;;;;;3.78;1.92;;;0.20;89.10;;;;;;5070255;28;20045;-79
2023/01/18 00:41:00;;;;;;;7.93;4.57;;;0.10;89.30;;;;;;5053163;28;20554;-79
2023/01/18 00:43:38;;;;;;;19.55;12.90;;;0.20;89.30;;;;;;5053237;28;20041;-78
2023/01/18 00:46:09;;;;;;;16.35;9.40;;;0.20;89.30;;;;;;5052920;28;20040;-79
2023/01/18 00:48:35;;;;;;;19.00;8.65;;;0.20;89.50;;;;;;5053492;28;20064;-80
2023/01/18 00:51:01;;;;;;;7.22;3.45;;;0.20;89.50;;;;;;5041028;28;20052;-79
2023/01/18 00:53:28;;;;;;;4.32;2.83;;;0.20;89.50;;;;;;5033389;28;20045;-78
2023/01/18 00:55:54;;;;;;;5.30;1.73;;;0.20;89.50;;;;;;5032933;28;20093;-78
2023/01/18 00:58:20;;;;;;;6.93;3.20;;;0.20;89.40;;;;;;5032411;28;20037;-78
2023/01/18 01:00:47;;;;;;;4.35;3.25;;;0.20;89.30;;;;;;5031892;28;20049;-77
2023/01/18 01:03:13;;;;;;;2.97;1.65;;;0.20;89.40;;;;;;5032915;28;20128;-78
2023/01/18 01:08:24;;;;;;;8.60;2.55;;;0.20;89.20;;;;;;5049468;28;20045;-78
2023/01/18 01:11:01;;;;;;;3.58;1.85;;;0.20;89.30;;;;;;5032708;28;20056;-78
2023/01/18 01:27:10;;;;;;;6.38;1.70;;;0.10;89.90;;;;;;5049040;28;20045;-78
2023/01/18 01:29:37;;;;;;;3.28;1.67;;;0.10;89.60;;;;;;5032370;28;20068;-78
2023/01/18 01:32:03;;;;;;;4.43;1.95;;;0.10;89.70;;;;;;5032577;28;20037;-78
2023/01/18 01:34:29;;;;;;;3.78;1.60;;;0.10;89.80;;;;;;5032238;28;20124;-76
2023/01/18 01:36:55;;;;;;;5.43;1.70;;;0.10;89.60;;;;;;5032484;28;20136;-78
2023/01/18 01:39:21;;;;;;;3.38;1.50;;;0.10;89.70;;;;;;5032280;28;20144;-79
2023/01/18 01:41:47;;;;;;;3.85;1.60;;;0.10;89.50;;;;;;5015836;28;20076;-77
2023/01/18 01:44:16;;;;;;;3.35;1.70;;;0.10;89.70;;;;;;5032410;28;20037;-77
2023/01/18 01:46:48;;;;;;;6.43;2.20;;;0.10;89.60;;;;;;5031314;28;20045;-78
2023/01/18 01:49:19;;;;;;;3.97;1.77;;;0.10;89.70;;;;;;5032397;28;20495;-78
2023/01/18 01:51:50;;;;;;;6.65;2.25;;;0.10;89.80;;;;;;5032353;28;20033;-78
2023/01/18 01:54:42;;;;;;;6.10;1.90;;;0.20;89.60;;;;;;5032018;28;20041;-79
2023/01/18 01:57:14;;;;;;;3.30;2.00;;;0.20;89.70;;;;;;5032007;28;20508;-77
2023/01/18 01:59:49;;;;;;;5.65;1.65;;;0.20;90.40;;;;;;5048542;28;20038;-78
2023/01/18 02:02:14;;;;;;;5.00;1.60;;;0.20;90.40;;;;;;5032222;28;20041;-79
2023/01/18 02:04:43;;;;;;;4.57;1.70;;;0.30;89.90;;;;;;5031837;28;20493;-79
2023/01/18 02:07:12;;;;;;;3.75;1.80;;;0.30;90.20;;;;;;5031652;28;20568;-78
2023/01/18 02:09:39;;;;;;;3.90;1.67;;;0.30;90.30;;;;;;5031866;28;20115;-79
2023/01/18 02:12:05;;;;;;;5.57;2.05;;;0.30;89.90;;;;;;5031976;28;20045;-78
2023/01/18 02:14:31;;;;;;;2.83;1.50;;;0.30;90.00;;;;;;5032032;28;20391;-79
2023/01/18 02:17:21;;;;;;;4.38;1.52;;;0.30;89.80;;;;;;5031585;28;20167;-78
2023/01/18 02:20:07;;;;;;;4.07;1.30;;;0.30;89.70;;;;;;5031685;28;20048;-79
2023/01/18 02:22:54;;;;;;;8.07;1.98;;;0.30;89.80;;;;;;5031695;28;20042;-78
2023/01/18 02:26:08;;;;;;;3.53;1.88;;;0.30;89.70;;;;;;5031607;28;20045;-79
2023/01/18 02:28:36;;;;;;;4.70;2.05;;;0.20;89.80;;;;;;5029645;28;20049;-78
2023/01/18 02:31:24;;;;;;;5.45;2.40;;;0.20;89.80;;;;;;5031860;28;20076;-78
2023/01/18 02:34:12;;;;;;;7.25;1.98;;;0.20;89.90;;;;;;5031719;28;20051;-78
2023/01/18 02:37:06;;;;;;;5.95;2.05;;;0.20;89.60;;;;;;5031521;28;20145;-78
2023/01/18 02:39:53;;;;;;;4.18;2.13;;;0.20;89.70;;;;;;5031505;28;20057;-79
2023/01/18 02:48:13;;;;;;;4.85;1.80;;;0.20;89.70;;;;;;5048035;28;20044;-79
2023/01/18 02:50:39;;;;;;;4.40;1.70;;;0.30;89.80;;;;;;5031688;28;20402;-78
2023/01/18 02:53:05;;;;;;;4.35;1.75;;;0.20;89.70;;;;;;5031343;28;20045;-79
2023/01/18 02:55:57;;;;;;;4.88;1.95;;;0.30;89.70;;;;;;5048201;28;20037;-77
2023/01/18 02:58:32;;;;;;;3.13;1.85;;;0.30;89.90;;;;;;5035293;28;20055;-79
2023/01/18 03:01:10;;;;;;;3.67;2.30;;;0.30;89.70;;;;;;5035088;28;20060;-78
2023/01/18 03:03:39;;;;;;;4.82;2.00;;;0.30;90.00;;;;;;5035431;28;20104;-79
2023/01/18 03:06:07;;;;;;;4.72;2.22;;;0.20;90.10;;;;;;5034481;28;20065;-78
2023/01/18 03:08:39;;;;;;;5.70;2.00;;;0.20;90.00;;;;;;5034624;28;20049;-79
2023/01/18 03:11:36;;;;;;;6.30;2.47;;;0.20;89.90;;;;;;5035266;28;20041;-79
2023/01/18 03:14:39;;;;;;;5.68;2.47;;;0.20;89.90;;;;;;5034894;28;20045;-79
2023/01/18 03:17:28;;;;;;;3.67;2.05;;;0.20;89.70;;;;;;5026734;28;20049;-79
2023/01/18 03:20:08;;;;;;;6.90;2.45;;;0.20;89.80;;;;;;5018128;28;20058;-78
2023/01/18 03:25:44;;;;;;;5.22;1.90;;;0.20;89.80;;;;;;5051299;28;20103;-79
2023/01/18 03:33:57;;;;;;;5.20;2.45;;;0.20;89.60;;;;;;5051243;28;20049;-76
2023/01/18 03:36:30;;;;;;;6.65;2.70;;;0.20;89.70;;;;;;5034684;28;20042;-77
2023/01/18 03:39:01;;;;;;;5.63;2.85;;;0.10;89.80;;;;;;5034383;28;20128;-77
2023/01/18 03:41:31;;;;;;;4.95;2.60;;;0.10;89.70;;;;;;5034417;28;20037;-78
2023/01/18 03:44:03;;;;;;;5.50;2.95;;;0.20;89.90;;;;;;5034456;28;20034;-77
2023/01/18 03:46:31;;;;;;;10.38;3.33;;;0.10;90.30;;;;;;5034585;28;20034;-78
2023/01/18 03:48:57;;;;;;;5.78;3.50;;;0.10;90.00;;;;;;5034465;28;20103;-78
2023/01/18 03:51:50;;;;;;;7.03;3.10;;;0.20;90.20;;;;;;5034526;28;20042;-77
2023/01/18 03:54:33;;;;;;;7.53;3.88;;;0.20;90.40;;;;;;5033973;28;20050;-78
2023/01/18 03:57:10;;;;;;;8.15;3.22;;;0.20;90.00;;;;;;5034311;28;20041;-78
2023/01/18 03:59:38;;;;;;;6.30;3.30;;;0.20;90.20;;;;;;5034067;28;20124;-78
2023/01/18 04:02:05;;;;;;;6.35;3.58;;;0.20;90.30;;;;;;5034013;28;20068;-78
2023/01/18 04:04:30;;;;;;;10.23;5.40;;;0.20;90.50;;;;;;5034009;28;20044;-77
2023/01/18 04:06:56;;;;;;;7.78;4.45;;;0.20;90.60;;;;;;5033723;28;20053;-78
2023/01/18 04:09:23;;;;;;;8.13;4.50;;;0.30;90.20;;;;;;5032832;28;20033;-78
2023/01/18 04:11:49;;;;;;;9.55;4.93;;;0.30;90.10;;;;;;5034138;28;20371;-76
2023/01/18 04:14:15;;;;;;;10.93;4.47;;;0.30;90.10;;;;;;5034124;28;20099;-77
2023/01/18 04:16:41;;;;;;;6.70;3.97;;;0.40;90.10;;;;;;5033979;28;20045;-78
2023/01/18 04:19:07;;;;;;;9.43;4.60;;;0.40;90.40;;;;;;5034031;28;20037;-77
2023/01/18 04:21:33;;;;;;;9.45;4.22;;;0.40;90.30;;;;;;5033957;28;20150;-78
2023/01/18 04:23:59;;;;;;;8.55;4.82;;;0.40;90.30;;;;;;5017434;28;20430;-79
2023/01/18 04:26:25;;;;;;;11.35;4.82;;;0.40;90.20;;;;;;5033539;28;20071;-77
2023/01/18 04:28:51;;;;;;;12.35;4.88;;;0.40;90.70;;;;;;5033607;28;20128;-78
2023/01/18 04:31:16;;;;;;;9.18;4.90;;;0.50;90.70;;;;;;5033212;28;20175;-78
2023/01/18 04:33:42;;;;;;;10.05;5.18;;;0.60;90.50;;;;;;5033448;28;20515;-77
2023/01/18 04:36:08;;;;;;;9.07;4.90;;;0.50;90.90;;;;;;5033276;28;20391;-78
2023/01/18 04:38:34;;;;;;;9.75;5.22;;;0.50;91.10;;;;;;5000544;28;20045;-79
2023/01/18 04:41:03;;;;;;;7.30;4.53;;;0.60;91.00;;;;;;5033367;28;20064;-78
2023/01/18 04:43:29;;;;;;;12.15;4.55;;;0.60;90.70;;;;;;5033484;28;20042;-79
2023/01/18 04:45:56;;;;;;;7.97;5.53;;;0.50;90.90;;;;;;5000430;28;20041;-78
2023/01/18 04:48:23;;;;;;;11.15;5.07;;;0.60;90.60;;;;;;5033180;28;20041;-79
2023/01/18 04:50:49;;;;;;;10.43;5.25;;;0.60;90.70;;;;;;5033079;28;20045;-78
2023/01/18 04:53:16;;;;;;;10.38;5.38;;;0.60;90.80;;;;;;5033158;28;20425;-79
2023/01/18 04:55:42;;;;;;;11.65;5.28;;;0.60;90.60;;;;;;5033313;28;20081;-79
2023/01/18 04:58:09;;;;;;;10.15;5.55;;;0.60;90.70;;;;;;5033188;28;20418;-79
2023/01/18 05:00:38;;;;;;;12.95;5.60;;;0.60;90.60;;;;;;5033011;28;20052;-79
2023/01/18 05:03:05;;;;;;;10.07;5.00;;;0.50;90.50;;;;;;5032933;28;20042;-79
2023/01/18 05:05:30;;;;;;;11.07;5.25;;;0.50;90.70;;;;;;5016762;28;20389;-79
2023/01/18 05:07:56;;;;;;;8.25;5.15;;;0.60;90.50;;;;;;5016338;28;20060;-78
2023/01/18 05:10:22;;;;;;;8.73;4.78;;;0.50;90.70;;;;;;5032719;28;20132;-78
2023/01/18 05:12:48;;;;;;;8.13;4.45;;;0.50;90.80;;;;;;5032878;28;20127;-78
2023/01/18 05:15:13;;;;;;;8.57;4.07;;;0.50;90.80;;;;;;5032620;28;20512;-79
2023/01/18 05:17:39;;;;;;;8.85;4.72;;;0.50;90.90;;;;;;5032700;28;20155;-80
2023/01/18 05:20:06;;;;;;;7.28;4.10;;;0.40;90.90;;;;;;5032467;28;20089;-79
2023/01/18 05:22:32;;;;;;;10.45;4.90;;;0.40;90.90;;;;;;5032836;28;20417;-77
2023/01/18 05:24:59;;;;;;;8.18;4.57;;;0.40;90.90;;;;;;5032510;28;20072;-79
2023/01/18 05:27:24;;;;;;;8.68;5.32;;;0.40;90.80;;;;;;5032629;28;20102;-79
2023/01/18 05:29:50;;;;;;;11.68;5.13;;;0.40;90.80;;;;;;5032455;28;20473;-79
2023/01/18 05:32:16;;;;;;;8.45;4.45;;;0.30;90.80;;;;;;5015982;28;20045;-78
2023/01/18 05:34:42;;;;;;;9.30;4.85;;;0.30;91.00;;;;;;5032522;28;20048;-80
2023/01/18 05:37:09;;;;;;;11.68;4.97;;;0.20;91.00;;;;;;5016087;28;20037;-79
2023/01/18 05:39:35;;;;;;;7.47;4.15;;;0.20;90.90;;;;;;5032398;28;20379;-79
2023/01/18 05:42:00;;;;;;;11.18;5.00;;;0.20;91.10;;;;;;5015756;28;20034;-78
2023/01/18 05:44:26;;;;;;;9.73;4.40;;;0.20;90.90;;;;;;5032461;28;20072;-77
2023/01/18 05:46:52;;;;;;;8.07;4.63;;;0.20;91.40;;;;;;5032321;28;20511;-79
2023/01/18 05:49:17;;;;;;;12.15;4.88;;;0.10;91.40;;;;;;5032331;28;20136;-78
2023/01/18 05:51:43;;;;;;;7.53;3.95;;;0.10;91.40;;;;;;5032384;28;20079;-79
2023/01/18 05:54:09;;;;;;;9.05;3.97;;;0.10;91.60;;;;;;5032067;28;20033;-79
2023/01/18 05:56:34;;;;;;;9.27;4.25;;;0.10;91.70;;;;;;5031951;28;20041;-78
2023/01/18 05:59:00;;;;;;;8.82;4.22;;;0.10;91.80;;;;;;5015581;28;20037;-78
2023/01/18 06:01:27;;;;;;;9.95;5.05;;;0.10;92.00;;;;;;5031974;28;20099;-79
2023/01/18 06:03:52;;;;;;;8.40;3.90;;;0.10;91.80;;;;;;5015479;28;20140;-79
2023/01/18 06:06:18;;;;;;;7.47;4.13;;;0.10;91.90;;;;;;5015172;28;20076;-78
2023/01/18 06:08:44;;;;;;;7.53;3.60;;;0.10;91.90;;;;;;5032020;28;20045;-77
2023/01/18 06:11:10;;;;;;;8.18;4.00;;;0.10;91.50;;;;;;5031880;28;20405;-79
2023/01/18 06:13:35;;;;;;;8.68;4.63;;;0.20;91.50;;;;;;5031795;28;20057;-78
2023/01/18 06:16:02;;;;;;;10.63;4.22;;;0.20;91.60;;;;;;5031941;28;20033;-79
2023/01/18 06:18:31;;;;;;;6.93;3.60;;;0.20;91.50;;;;;;5031855;28;20056;-78
2023/01/18 06:20:58;;;;;;;9.95;3.85;;;0.20;91.70;;;;;;5031744;28;20398;-79
2023/01/18 06:23:24;;;;;;;7.30;3.78;;;0.30;91.40;;;;;;5032015;28;20512;-79
2023/01/18 06:25:51;;;;;;;10.00;3.88;;;0.30;91.80;;;;;;5031489;28;20033;-78
2023/01/18 06:28:18;;;;;;;7.13;4.10;;;0.40;91.40;;;;;;5031615;28;20072;-77
2023/01/18 06:30:46;;;;;;;7.75;3.45;;;0.40;91.40;;;;;;5031691;28;20045;-78
2023/01/18 06:33:14;;;;;;;10.57;4.07;;;0.40;91.40;;;;;;5035497;28;20087;-78
2023/01/18 06:35:40;;;;;;;6.63;3.28;;;0.40;91.10;;;;;;5035677;28;20042;-79
2023/01/18 06:38:06;;;;;;;8.90;4.13;;;0.40;91.20;;;;;;5035609;28;20049;-79
2023/01/18 06:40:32;;;;;;;8.50;4.68;;;0.30;91.40;;;;;;5052092;28;20486;-79
2023/01/18 06:42:58;;;;;;;9.93;5.05;;;0.30;91.40;;;;;;5035503;28;20075;-79
2023/01/18 06:45:24;;;;;;;8.15;3.85;;;0.30;91.40;;;;;;5035407;28;20046;-76
2023/01/18 06:47:51;;;;;;;8.40;3.67;;;0.30;91.30;;;;;;5035432;28;20042;-78
2023/01/18 06:50:18;;;;;;;7.45;3.60;;;0.30;91.20;;;;;;5035687;28;20397;-79
2023/01/18 06:52:44;;;;;;;8.80;3.78;;;0.30;91.10;;;;;;5035439;28;20041;-78
2023/01/18 06:55:12;;;;;;;9.30;4.30;;;0.30;91.40;;;;;;5018721;28;20440;-78
2023/01/18 06:57:37;;;;;;;12.02;5.13;;;0.40;91.50;;;;;;5044708;28;20098;-79
2023/01/18 07:00:09;;;;;;;10.20;4.22;;;0.40;91.50;;;;;;5055246;28;20044;-77
2023/01/18 07:02:35;;;;;;;11.07;4.97;;;0.30;91.50;;;;;;5038519;28;20076;-76
2023/01/18 07:05:02;;;;;;;7.55;4.00;;;0.40;91.40;;;;;;5022012;28;20041;-78
2023/01/18 07:07:28;;;;;;;10.45;3.47;;;0.30;91.50;;;;;;5021740;28;20053;-77
2023/01/18 07:09:53;;;;;;;12.27;3.55;;;0.30;91.40;;;;;;5038410;28;20155;-78
2023/01/18 07:12:20;;;;;;;7.82;3.53;;;0.30;91.60;;;;;;5053658;28;20045;-78
2023/01/18 07:14:45;;;;;;;6.50;3.85;;;0.30;91.60;;;;;;5038204;28;20052;-78
2023/01/18 07:17:11;;;;;;;9.20;4.28;;;0.40;91.90;;;;;;5038166;28;20037;-78
2023/01/18 07:19:37;;;;;;;5.07;3.03;;;0.40;91.90;;;;;;5021785;28;20045;-78
2023/01/18 07:22:03;;;;;;;7.03;3.45;;;0.40;91.90;;;;;;5054646;28;20063;-78
2023/01/18 07:24:29;;;;;;;6.28;3.60;;;0.50;91.80;;;;;;5054863;28;20040;-77
2023/01/18 07:26:54;;;;;;;8.50;4.13;;;0.50;91.90;;;;;;5038181;28;20029;-80
2023/01/18 07:29:21;;;;;;;5.82;2.90;;;0.50;91.80;;;;;;5038430;28;20036;-79
2023/01/18 07:31:46;;;;;;;7.75;3.58;;;0.50;91.90;;;;;;5038392;28;20043;-79
2023/01/18 07:34:13;;;;;;;6.45;3.30;;;0.50;91.90;;;;;;5021502;28;20457;-79
2023/01/18 07:36:40;;;;;;;7.30;3.20;;;0.50;91.70;;;;;;5054547;28;20362;-80
2023/01/18 07:39:07;;;;;;;6.10;3.08;;;0.50;91.70;;;;;;5054416;28;20045;-80
2023/01/18 07:41:33;;;;;;;4.78;2.80;;;0.50;91.60;;;;;;5037517;28;20037;-80
2023/01/18 07:44:00;;;;;;;8.35;3.20;;;0.60;91.50;;;;;;5037561;28;20095;-80
2023/01/18 07:46:26;;;;;;;6.65;3.10;;;0.60;91.40;;;;;;5037302;28;20504;-79
2023/01/18 07:48:52;;;;;;;8.63;4.03;;;0.60;91.30;;;;;;5054099;28;20052;-79
2023/01/18 07:51:20;;;;;;;7.88;4.88;;;0.60;91.20;;;;;;5032369;28;20052;-81
2023/01/18 07:53:46;;;;;;;7.95;3.50;;;0.60;91.20;;;;;;5052156;28;20045;-78
2023/01/18 07:56:14;;;;;;;23.30;14.82;;;0.60;91.30;;;;;;5035903;28;20045;-80
2023/01/18 07:58:40;;;;;;;27.13;14.48;;;0.60;91.20;;;;;;5035323;28;20246;-81
2023/01/18 08:01:12;;;;;;;24.77;13.65;;;0.60;91.20;;;;;;5051923;28;20049;-80
2023/01/18 08:03:38;;;;;;;14.85;8.80;;;0.60;91.10;;;;;;5035761;28;20163;-83
2023/01/18 08:06:06;;;;;;;18.65;12.07;;;0.60;91.10;;;;;;5035346;28;20049;-81
2023/01/18 08:08:33;;;;;;;16.27;10.15;;;0.50;91.30;;;;;;5034402;28;20557;-81
2023/01/18 08:11:02;;;;;;;12.90;7.22;;;0.40;91.80;;;;;;5035249;28;20470;-81
2023/01/18 08:13:28;;;;;;;10.60;8.07;;;0.40;92.20;;;;;;5052198;28;20500;-79
2023/01/18 08:15:57;;;;;;;12.40;7.43;;;0.30;92.00;;;;;;5034719;28;20044;-79
2023/01/18 08:18:23;;;;;;;11.85;6.97;;;0.40;92.70;;;;;;5036218;28;20478;-81
2023/01/18 08:20:49;;;;;;;12.32;7.45;;;0.30;93.00;;;;;;5020664;28;20037;-80
2023/01/18 08:23:16;;;;;;;10.10;7.30;;;0.30;93.20;;;;;;5053617;28;20047;-77
2023/01/18 08:25:42;;;;;;;14.68;9.05;;;0.30;93.30;;;;;;5053405;28;20072;-78
2023/01/18 08:28:09;;;;;;;12.88;8.23;;;0.30;93.80;;;;;;5020456;28;20045;-78
2023/01/18 08:30:38;;;;;;;12.25;7.25;;;0.30;93.30;;;;;;5037209;28;20401;-79
2023/01/18 08:33:04;;;;;;;11.90;7.32;;;0.30;93.60;;;;;;5053397;28;20555;-79
2023/01/18 08:35:33;;;;;;;12.70;7.57;;;0.40;94.10;;;;;;5020449;28;20389;-78
2023/01/18 08:38:00;;;;;;;16.23;7.78;;;0.40;93.90;;;;;;5037012;28;20047;-80
2023/01/18 08:40:26;;;;;;;12.30;7.57;;;0.50;94.30;;;;;;5036654;28;20170;-80
2023/01/18 08:43:01;;;;;;;13.90;6.80;;;0.50;94.10;;;;;;5036646;28;20474;-80
2023/01/18 08:45:27;;;;;;;11.50;6.75;;;0.50;94.20;;;;;;5036672;28;20040;-79
2023/01/18 08:47:57;;;;;;;14.52;7.95;;;0.50;94.00;;;;;;5036858;28;20284;-79
2023/01/18 08:50:23;;;;;;;14.05;8.25;;;0.60;94.10;;;;;;5053045;28;20481;-80
2023/01/18 08:52:51;;;;;;;18.15;10.50;;;0.50;93.80;;;;;;5053193;28;20051;-80
2023/01/18 08:55:17;;;;;;;14.05;8.60;;;0.60;93.30;;;;;;5052635;28;20061;-80
2023/01/18 08:57:43;;;;;;;14.18;9.27;;;0.60;93.20;;;;;;5052987;28;20052;-80
2023/01/18 09:00:09;;;;;;;13.30;8.35;;;0.60;93.70;;;;;;5019783;28;20041;-81
2023/01/18 09:02:35;;;;;;;12.13;7.20;;;0.60;94.00;;;;;;5020041;28;20041;-79
2023/01/18 09:05:01;;;;;;;13.10;8.15;;;0.70;94.20;;;;;;5052875;28;20075;-80
2023/01/18 09:07:26;;;;;;;11.10;7.90;;;0.70;93.80;;;;;;5019336;28;20060;-80
2023/01/18 09:09:52;;;;;;;12.65;6.78;;;0.80;93.80;;;;;;5019777;28;20048;-80
2023/01/18 09:12:18;;;;;;;10.48;6.93;;;0.80;93.70;;;;;;5019639;28;20044;-80
2023/01/18 09:14:44;;;;;;;12.05;6.22;;;0.90;93.50;;;;;;5052872;28;20072;-80
2023/01/18 09:17:10;;;;;;;13.10;6.88;;;1.00;93.80;;;;;;5035900;28;20040;-80
2023/01/18 09:19:35;;;;;;;18.45;8.02;;;0.90;93.40;;;;;;5052492;28;20178;-80
2023/01/18 09:22:02;;;;;;;11.73;7.00;;;1.00;93.40;;;;;;5052533;28;20039;-80
2023/01/18 09:24:28;;;;;;;9.15;5.93;;;1.10;93.80;;;;;;5035900;28;20045;-81
2023/01/18 09:26:54;;;;;;;9.90;6.60;;;1.10;93.60;;;;;;5052349;28;20048;-79
2023/01/18 09:29:19;;;;;;;11.05;7.10;;;1.20;93.60;;;;;;5052586;28;20064;-80
2023/01/18 09:31:45;;;;;;;12.55;6.75;;;1.20;93.70;;;;;;5019356;28;20492;-80
2023/01/18 09:34:12;;;;;;;12.45;6.68;;;1.30;93.50;;;;;;5019535;28;20033;-80
2023/01/18 09:36:38;;;;;;;11.73;7.30;;;1.40;93.50;;;;;;5052140;28;20492;-80
2023/01/18 09:39:05;;;;;;;8.68;5.63;;;1.50;93.40;;;;;;5052268;28;20555;-80
2023/01/18 09:41:33;;;;;;;9.15;5.45;;;1.60;93.00;;;;;;5052079;28;20072;-80
2023/01/18 09:44:06;;;;;;;8.57;5.25;;;1.70;93.50;;;;;;5035767;28;20620;-78
2023/01/18 09:46:36;;;;;;;9.15;5.45;;;1.90;93.40;;;;;;5035753;28;20037;-81
2023/01/18 09:49:03;;;;;;;11.07;6.80;;;2.00;93.00;;;;;;5035457;28;20099;-81
2023/01/18 09:51:31;;;;;;;13.90;10.35;;;2.10;92.50;;;;;;5052015;28;20037;-81
2023/01/18 09:54:06;;;;;;;20.92;8.05;;;2.20;92.40;;;;;;5052011;28;20044;-82
2023/01/18 09:56:37;;;;;;;38.45;22.38;;;2.30;92.40;;;;;;5052142;28;20041;-81
2023/01/18 09:59:21;;;;;;;55.90;29.80;;;2.40;92.30;;;;;;5052296;28;20047;-81
2023/01/18 10:01:48;;;;;;;44.78;24.95;;;2.50;92.30;;;;;;5051912;28;20044;-81
2023/01/18 10:04:20;;;;;;;17.70;11.15;;;2.60;92.40;;;;;;5035497;28;20051;-81
2023/01/18 10:06:54;;;;;;;18.73;11.80;;;2.70;92.10;;;;;;5050985;28;20421;-81
2023/01/18 10:09:23;;;;;;;22.85;12.73;;;2.70;92.10;;;;;;5051980;28;20428;-81
2023/01/18 10:11:56;;;;;;;25.75;12.25;;;2.80;92.00;;;;;;5051608;28;20136;-82
2023/01/18 10:14:40;;;;;;;38.13;17.88;;;3.00;91.80;;;;;;5035387;28;20438;-81
2023/01/18 10:17:22;;;;;;;50.10;25.87;;;3.10;91.70;;;;;;5034962;28;20409;-82
2023/01/18 10:19:49;;;;;;;20.77;10.40;;;3.10;91.50;;;;;;5034892;28;20037;-82
2023/01/18 10:22:47;;;;;;;38.42;23.40;;;3.20;91.30;;;;;;5018974;28;20500;-83
2023/01/18 10:25:52;;;;;;;58.00;29.25;;;3.40;90.90;;;;;;5050984;28;20049;-82
2023/01/18 10:28:57;;;;;;;135.73;69.23;;;3.50;90.80;;;;;;5034946;28;20470;-82
2023/01/18 10:32:00;;;;;;;11.60;6.30;;;3.70;90.50;;;;;;5024712;28;20053;-82
2023/01/18 10:34:32;;;;;;;8.95;6.30;;;3.80;90.20;;;;;;5035010;28;20048;-82
2023/01/18 10:37:41;;;;;;;9.80;5.72;;;3.90;90.00;;;;;;5034863;28;20033;-82
2023/01/18 10:40:09;;;;;;;6.50;4.78;;;4.00;89.80;;;;;;5040191;28;20049;-83
2023/01/18 10:42:58;;;;;;;9.63;6.13;;;4.00;89.40;;;;;;5034900;28;20120;-83
2023/01/18 10:45:27;;;;;;;8.85;5.32;;;4.10;89.10;;;;;;5034986;28;20512;-82
2023/01/18 10:47:55;;;;;;;9.13;5.00;;;4.20;88.40;;;;;;5051358;28;20052;-83
2023/01/18 10:50:38;;;;;;;10.00;3.72;;;4.20;88.80;;;;;;5018639;28;20373;-83
2023/01/18 10:53:22;;;;;;;9.48;4.47;;;4.20;88.00;;;;;;5051612;28;20369;-82
2023/01/18 10:56:03;;;;;;;6.72;3.20;;;4.30;88.30;;;;;;5031588;28;20045;-81
2023/01/18 10:58:59;;;;;;;6.65;3.75;;;4.40;87.40;;;;;;5031674;28;20049;-80
2023/01/18 11:01:32;;;;;;;6.50;2.97;;;4.50;87.00;;;;;;5011351;28;20057;-81
2023/01/18 11:04:05;;;;;;;7.43;3.88;;;4.50;87.00;;;;;;5031463;28;20076;-81
2023/01/18 11:06:55;;;;;;;9.48;3.65;;;4.50;87.20;;;;;;5031086;28;20041;-80
2023/01/18 11:09:50;;;;;;;10.75;4.20;;;4.30;86.90;;;;;;5025291;28;20132;-80
2023/01/18 11:12:37;;;;;;;;;;;4.20;87.10;;;;;;5011783;28;20049;-80
2023/01/18 11:15:12;;;;;;;6.20;3.17;;;4.10;87.60;;;;;;5031256;28;20016;-80
2023/01/18 11:17:42;;;;;;;7.93;3.78;;;4.20;87.90;;;;;;5031931;28;20048;-80
2023/01/18 11:20:15;;;;;;;6.28;2.65;;;4.40;87.50;;;;;;5034820;28;20505;-81
2023/01/18 11:23:00;;;;;;;9.00;3.55;;;4.60;86.70;;;;;;5034866;28;20077;-80
2023/01/18 11:25:34;;;;;;;5.88;2.80;;;4.60;84.80;;;;;;5034728;28;20034;-80
2023/01/18 11:28:01;;;;;;;9.48;4.18;;;4.60;85.60;;;;;;5034732;28;20041;-81
2023/01/18 11:30:27;;;;;;;9.55;2.78;;;4.60;85.20;;;;;;5034675;28;20056;-81
2023/01/18 11:32:53;;;;;;;39.58;16.10;;;4.50;84.60;;;;;;5018302;28;20132;-79
2023/01/18 11:35:36;;;;;;;10.65;5.07;;;4.40;85.20;;;;;;5018082;28;20041;-81
2023/01/18 11:38:05;;;;;;;11.93;5.97;;;4.40;85.20;;;;;;5041605;28;20068;-80
2023/01/18 11:40:34;;;;;;;37.40;21.48;;;4.40;85.50;;;;;;5071067;28;20367;-81
2023/01/18 11:43:21;;;;;;;17.23;10.43;;;4.50;85.70;;;;;;5054635;28;20041;-81
2023/01/18 11:45:53;;;;;;;36.47;22.70;;;4.40;84.80;;;;;;5054312;28;20037;-80
2023/01/18 11:48:34;;;;;;;12.55;7.57;;;4.50;84.60;;;;;;5054275;28;20041;-81
2023/01/18 11:51:06;;;;;;;6.80;5.53;;;4.60;84.50;;;;;;5070935;28;20045;-80
2023/01/18 11:54:03;;;;;;;7.88;7.07;;;4.70;84.00;;;;;;5070986;28;20072;-79
2023/01/18 11:56:39;;;;;;;9.57;4.40;;;5.00;84.40;;;;;;5054075;28;20041;-79
2023/01/18 11:59:32;;;;;;;7.05;3.60;;;5.10;83.50;;;;;;5054113;28;20036;-80
2023/01/18 12:02:22;;;;;;;4.93;2.53;;;5.30;82.50;;;;;;5046776;28;20057;-81
2023/01/18 12:04:59;;;;;;;5.88;2.60;;;5.50;82.50;;;;;;5054160;28;20041;-80
2023/01/18 12:08:06;;;;;;;9.43;2.03;;;5.60;81.70;;;;;;5053755;28;20092;-80
2023/01/18 12:11:14;;;;;;;5.40;1.83;;;5.70;81.00;;;;;;5053979;28;20052;-80
2023/01/18 12:13:40;;;;;;;6.38;2.10;;;5.60;80.00;;;;;;5035186;28;20107;-80
2023/01/18 12:16:16;;;;;;;8.32;2.33;;;5.60;80.90;;;;;;5053670;28;20487;-79
2023/01/18 12:18:50;;;;;;;5.85;2.00;;;5.40;80.30;;;;;;5054099;28;20460;-81
2023/01/18 12:22:03;;;;;;;6.07;2.13;;;5.30;80.70;;;;;;5053748;28;20045;-79
2023/01/18 12:24:48;;;;;;;6.00;4.95;;;5.30;80.90;;;;;;5070289;28;20045;-80
2023/01/18 12:27:39;;;;;;;5.15;2.38;;;5.10;80.90;;;;;;5053586;28;20170;-81
2023/01/18 12:30:21;;;;;;;5.13;2.10;;;5.00;81.40;;;;;;5069258;28;20041;-80
2023/01/18 12:33:18;;;;;;;3.70;2.05;;;4.90;81.60;;;;;;5053763;28;20089;-80
2023/01/18 12:36:06;;;;;;;5.18;2.17;;;4.80;81.90;;;;;;5053403;28;20044;-81
2023/01/18 12:38:33;;;;;;;4.75;2.17;;;4.70;81.90;;;;;;5070106;28;20436;-80
2023/01/18 12:41:20;;;;;;;7.10;2.70;;;4.70;82.20;;;;;;5053287;28;20413;-80
2023/01/18 12:44:22;;;;;;;7.63;1.83;;;4.60;82.40;;;;;;5036697;28;20098;-81
2023/01/18 12:46:58;;;;;;;6.20;1.90;;;4.60;82.70;;;;;;5053159;28;20515;-79
2023/01/18 12:49:26;;;;;;;7.40;3.03;;;4.60;83.20;;;;;;5036582;28;20044;-80
2023/01/18 12:51:58;;;;;;;2.83;1.30;;;4.60;83.10;;;;;;5036487;28;20052;-79
2023/01/18 12:54:35;;;;;;;5.43;1.70;;;4.50;83.40;;;;;;5036850;28;20040;-80
2023/01/18 12:57:02;;;;;;;9.77;3.85;;;4.50;83.40;;;;;;5052961;28;20037;-81
2023/01/18 12:59:32;;;;;;;7.38;2.72;;;4.40;83.60;;;;;;5053214;28;20127;-80
2023/01/18 13:02:34;;;;;;;5.10;1.85;;;4.30;83.90;;;;;;5052865;28;20068;-81
2023/01/18 13:05:33;;;;;;;5.07;1.65;;;4.30;84.20;;;;;;5042101;28;20049;-81
2023/01/18 13:08:15;;;;;;;6.22;2.08;;;4.30;84.50;;;;;;5036010;28;20060;-80
2023/01/18 13:10:43;;;;;;;8.50;2.67;;;4.20;84.50;;;;;;5052812;28;20045;-82
2023/01/18 13:13:16;;;;;;;7.18;2.78;;;4.20;84.50;;;;;;5019869;28;20045;-79
2023/01/18 13:16:11;;;;;;;8.15;3.72;;;4.30;84.70;;;;;;5052618;28;20037;-80
2023/01/18 13:19:00;;;;;;;5.78;3.30;;;4.30;84.90;;;;;;5036255;28;20366;-81
2023/01/18 13:21:42;;;;;;;6.97;2.95;;;4.20;85.30;;;;;;5035949;28;20200;-80
2023/01/18 13:24:16;;;;;;;5.28;2.97;;;4.30;85.20;;;;;;5052813;28;20397;-79
2023/01/18 13:26:42;;;;;;;10.90;4.55;;;4.30;85.20;;;;;;5052660;28;20037;-80
2023/01/18 13:29:27;;;;;;;24.48;12.35;;;4.20;85.20;;;;;;5035808;28;20558;-80
2023/01/18 13:31:53;;;;;;;5.03;1.60;;;4.30;85.00;;;;;;5035985;28;20390;-79
2023/01/18 13:34:27;;;;;;;6.10;1.80;;;4.30;85.00;;;;;;5052436;28;20048;-80
2023/01/18 13:36:54;;;;;;;5.18;1.58;;;4.30;85.00;;;;;;5052246;28;20080;-80
2023/01/18 13:39:21;;;;;;;6.30;1.80;;;4.30;84.80;;;;;;5052505;28;20389;-79
2023/01/18 13:42:07;;;;;;;5.25;1.52;;;4.30;84.70;;;;;;5052347;28;20140;-79
2023/01/18 13:44:44;;;;;;;3.28;1.33;;;4.30;84.50;;;;;;5052187;28;20043;-79
2023/01/18 13:47:38;;;;;;;8.10;1.63;;;4.30;84.40;;;;;;5052296;28;20393;-79
2023/01/18 13:50:38;;;;;;;5.65;3.17;;;4.30;84.50;;;;;;5052316;28;20445;-79